createdAt,value
2022-12-25T00:01:11.166Z,23.95
2022-12-25T00:03:38.378Z,20.55
2022-12-25T00:06:05.195Z,20.17
2022-12-25T00:08:31.737Z,20.33
2022-12-25T00:11:08.784Z,21.67
2022-12-25T00:13:35.253Z,19.90
2022-12-25T00:16:05.370Z,18.40
2022-12-25T00:18:31.760Z,18.15
2022-12-25T00:21:02.145Z,20.55
2022-12-25T00:23:28.816Z,19.38
2022-12-25T00:25:55.631Z,17.60
2022-12-25T00:28:22.623Z,19.40
2022-12-25T00:30:49.091Z,15.90
2022-12-25T00:33:15.858Z,17.55
2022-12-25T00:35:42.668Z,19.05
2022-12-25T00:38:09.115Z,15.88
2022-12-25T00:40:41.970Z,18.08
2022-12-25T00:43:08.314Z,17.08
2022-12-25T00:45:34.686Z,20.23
2022-12-25T00:48:01.334Z,16.45
2022-12-25T00:50:27.737Z,17.27
2022-12-25T00:52:54.128Z,18.38
2022-12-25T00:55:20.499Z,18.67
2022-12-25T00:57:46.843Z,15.60
2022-12-25T01:00:13.404Z,17.25
2022-12-25T01:02:39.832Z,18.00
2022-12-25T01:05:06.703Z,15.80
2022-12-25T01:07:33.103Z,16.02
2022-12-25T01:10:18.072Z,16.17
2022-12-25T01:12:44.470Z,16.00
2022-12-25T01:15:11.353Z,16.45
2022-12-25T01:17:37.703Z,16.33
2022-12-25T01:20:04.841Z,15.93
2022-12-25T01:22:31.235Z,16.40
2022-12-25T01:24:57.522Z,16.33
2022-12-25T01:27:24.046Z,15.07
2022-12-25T01:29:50.436Z,16.50
2022-12-25T01:32:16.761Z,14.60
2022-12-25T01:34:43.111Z,16.77
2022-12-25T01:37:10.161Z,14.93
2022-12-25T01:39:36.623Z,16.42
2022-12-25T01:42:03.143Z,15.32
2022-12-25T01:44:35.284Z,17.40
2022-12-25T01:47:05.660Z,17.52
2022-12-25T01:49:33.391Z,16.27
2022-12-25T01:52:05.301Z,15.73
2022-12-25T01:54:36.214Z,16.87
2022-12-25T01:57:05.491Z,15.70
2022-12-25T01:59:31.865Z,16.52
2022-12-25T02:01:59.056Z,16.13
2022-12-25T02:04:39.269Z,15.25
2022-12-25T02:07:07.235Z,17.42
2022-12-25T02:09:33.640Z,18.35
2022-12-25T02:12:00.532Z,18.35
2022-12-25T02:14:27.835Z,18.27
2022-12-25T02:17:00.858Z,17.60
2022-12-25T02:19:39.265Z,17.67
2022-12-25T02:22:14.308Z,17.83
2022-12-25T02:24:49.480Z,18.48
2022-12-25T02:27:34.601Z,19.02
2022-12-25T02:30:05.209Z,17.85
2022-12-25T02:32:49.575Z,20.17
2022-12-25T02:35:27.770Z,20.90
2022-12-25T02:38:10.937Z,20.40
2022-12-25T02:40:43.021Z,18.83
2022-12-25T02:43:34.660Z,19.92
2022-12-25T02:46:21.530Z,21.25
2022-12-25T02:49:10.090Z,20.42
2022-12-25T02:51:56.678Z,19.02
2022-12-25T02:54:44.895Z,18.25
2022-12-25T02:57:31.265Z,19.02
2022-12-25T03:00:17.766Z,20.27
2022-12-25T03:03:03.592Z,20.58
2022-12-25T03:05:49.606Z,20.42
2022-12-25T03:08:24.652Z,20.35
2022-12-25T03:11:16.034Z,19.23
2022-12-25T03:13:43.323Z,19.48
2022-12-25T03:16:28.830Z,20.60
2022-12-25T03:18:56.728Z,20.77
2022-12-25T03:21:55.335Z,21.00
2022-12-25T03:24:40.144Z,19.60
2022-12-25T03:27:06.565Z,18.83
2022-12-25T03:29:51.818Z,23.10
2022-12-25T03:32:36.875Z,20.45
2022-12-25T03:35:24.585Z,21.13
2022-12-25T03:38:17.667Z,19.75
2022-12-25T03:41:08.663Z,19.40
2022-12-25T03:43:56.489Z,21.58
2022-12-25T03:46:43.255Z,19.80
2022-12-25T03:49:35.182Z,18.90
2022-12-25T03:52:21.191Z,20.23
2022-12-25T03:55:07.455Z,20.02
2022-12-25T03:57:53.756Z,19.23
2022-12-25T04:00:38.598Z,18.10
2022-12-25T04:03:23.541Z,16.17
2022-12-25T04:06:08.682Z,21.33
2022-12-25T04:08:53.558Z,19.35
2022-12-25T04:11:38.394Z,19.02
2022-12-25T04:14:23.255Z,19.52
2022-12-25T04:17:08.171Z,19.00
2022-12-25T04:19:53.254Z,19.30
2022-12-25T04:22:38.219Z,16.60
2022-12-25T04:25:22.990Z,20.77
2022-12-25T04:28:07.933Z,20.38
2022-12-25T04:30:52.900Z,18.65
2022-12-25T04:33:38.055Z,17.95
2022-12-25T04:36:13.479Z,19.10
2022-12-25T04:38:40.694Z,20.15
2022-12-25T04:41:07.667Z,19.15
2022-12-25T04:43:34.086Z,19.95
2022-12-25T04:46:01.307Z,20.15
2022-12-25T04:48:28.383Z,18.33
2022-12-25T04:50:55.042Z,18.25
2022-12-25T04:53:21.691Z,17.98
2022-12-25T04:55:48.060Z,17.42
2022-12-25T04:58:14.479Z,16.08
2022-12-25T05:00:41.032Z,18.30
2022-12-25T05:03:07.499Z,17.73
2022-12-25T05:05:34.059Z,19.17
2022-12-25T05:08:00.417Z,16.45
2022-12-25T05:10:26.766Z,16.90
2022-12-25T05:12:53.116Z,18.02
2022-12-25T05:15:19.522Z,17.00
2022-12-25T05:17:45.823Z,15.35
2022-12-25T05:20:12.216Z,16.38
2022-12-25T05:22:38.641Z,16.95
2022-12-25T05:25:05.253Z,16.90
2022-12-25T05:27:31.553Z,16.45
2022-12-25T05:29:57.938Z,17.58
2022-12-25T05:32:24.397Z,16.38
2022-12-25T05:34:50.706Z,15.45
2022-12-25T05:37:17.031Z,14.68
2022-12-25T05:39:43.437Z,15.77
2022-12-25T05:42:09.804Z,14.85
2022-12-25T05:44:36.222Z,16.45
2022-12-25T05:47:02.657Z,15.52
2022-12-25T05:49:29.019Z,16.05
2022-12-25T05:51:55.331Z,15.25
2022-12-25T05:54:21.717Z,15.32
2022-12-25T05:56:48.071Z,16.02
2022-12-25T05:59:14.484Z,16.90
2022-12-25T06:01:40.924Z,15.40
2022-12-25T06:04:12.375Z,15.50
2022-12-25T06:06:39.316Z,15.47
2022-12-25T06:09:05.664Z,15.13
2022-12-25T06:11:32.025Z,13.73
2022-12-25T06:13:58.380Z,17.08
2022-12-25T06:16:24.731Z,14.77
2022-12-25T06:18:54.580Z,16.05
2022-12-25T06:21:21.074Z,13.63
2022-12-25T06:23:47.579Z,14.75
2022-12-25T06:26:15.657Z,15.18
2022-12-25T06:28:42.405Z,15.18
2022-12-25T06:31:09.655Z,13.50
2022-12-25T06:33:36.393Z,13.93
2022-12-25T06:36:32.406Z,12.63
2022-12-25T06:39:01.925Z,11.88
2022-12-25T06:41:29.322Z,12.10
2022-12-25T06:43:56.950Z,12.15
2022-12-25T06:46:24.553Z,11.32
2022-12-25T06:48:51.075Z,11.13
2022-12-25T06:51:18.075Z,10.93
2022-12-25T06:53:44.516Z,11.32
2022-12-25T06:56:15.512Z,10.80
2022-12-25T06:58:45.420Z,11.57
2022-12-25T07:01:22.843Z,10.98
2022-12-25T07:03:51.270Z,10.48
2022-12-25T07:06:17.932Z,10.57
2022-12-25T07:08:44.373Z,10.77
2022-12-25T07:11:10.758Z,10.15
2022-12-25T07:13:37.137Z,10.15
2022-12-25T07:16:04.650Z,10.82
2022-12-25T07:18:31.539Z,9.65
2022-12-25T07:20:59.651Z,9.77
2022-12-25T07:23:26.755Z,9.57
2022-12-25T07:25:54.258Z,10.07
2022-12-25T07:28:20.560Z,9.77
2022-12-25T07:30:46.933Z,10.70
2022-12-25T07:33:13.391Z,8.63
2022-12-25T07:35:39.715Z,9.70
2022-12-25T07:38:06.151Z,10.07
2022-12-25T07:40:32.610Z,8.85
2022-12-25T07:42:58.901Z,9.82
2022-12-25T07:45:25.296Z,9.77
2022-12-25T07:47:55.002Z,8.90
2022-12-25T07:50:21.534Z,10.02
2022-12-25T07:52:47.954Z,8.90
2022-12-25T07:55:14.305Z,9.02
2022-12-25T07:57:40.871Z,9.98
2022-12-25T08:00:07.672Z,9.48
2022-12-25T08:02:38.321Z,8.40
2022-12-25T08:05:05.021Z,9.23
2022-12-25T08:07:31.416Z,10.20
2022-12-25T08:09:57.777Z,8.82
2022-12-25T08:12:24.198Z,7.95
2022-12-25T08:14:50.557Z,9.27
2022-12-25T08:17:16.954Z,8.52
2022-12-25T08:19:43.407Z,8.60
2022-12-25T08:22:09.767Z,8.77
2022-12-25T08:24:36.140Z,8.27
2022-12-25T08:27:02.938Z,7.80
2022-12-25T08:29:29.324Z,8.43
2022-12-25T08:31:55.835Z,7.30
2022-12-25T08:34:22.276Z,8.40
2022-12-25T08:36:48.629Z,7.95
2022-12-25T08:39:15.011Z,7.60
2022-12-25T08:41:41.837Z,7.88
2022-12-25T08:44:08.671Z,7.88
2022-12-25T08:46:36.592Z,7.80
2022-12-25T08:49:02.980Z,8.93
2022-12-25T08:51:29.310Z,8.20
2022-12-25T08:53:58.615Z,8.98
2022-12-25T08:56:25.086Z,7.50
2022-12-25T08:58:51.453Z,8.02
2022-12-25T09:01:17.939Z,7.43
2022-12-25T09:03:44.432Z,8.18
2022-12-25T09:06:14.990Z,7.78
2022-12-25T09:08:48.068Z,8.15
2022-12-25T09:11:15.504Z,7.85
2022-12-25T09:13:41.857Z,7.63
2022-12-25T09:16:09.048Z,7.80
2022-12-25T09:18:36.567Z,8.05
2022-12-25T09:21:05.815Z,8.20
2022-12-25T09:23:32.650Z,7.97
2022-12-25T09:25:59.977Z,7.97
2022-12-25T09:28:26.403Z,7.72
2022-12-25T09:30:53.143Z,6.95
2022-12-25T09:33:20.096Z,7.78
2022-12-25T09:35:53.289Z,8.07
2022-12-25T09:38:19.663Z,8.02
2022-12-25T09:40:46.032Z,7.13
2022-12-25T09:43:17.646Z,7.40
2022-12-25T09:45:44.675Z,7.13
2022-12-25T09:48:13.307Z,7.43
2022-12-25T09:50:49.581Z,7.93
2022-12-25T09:53:19.114Z,7.07
2022-12-25T09:56:08.438Z,7.55
2022-12-25T09:58:34.858Z,6.25
2022-12-25T10:01:19.930Z,6.45
2022-12-25T10:03:46.420Z,6.93
2022-12-25T10:06:15.807Z,7.15
2022-12-25T10:08:47.964Z,7.70
2022-12-25T10:11:34.526Z,7.28
2022-12-25T10:14:00.892Z,7.55
2022-12-25T10:16:34.297Z,8.68
2022-12-25T10:19:05.506Z,7.68
2022-12-25T10:21:32.362Z,8.65
2022-12-25T10:23:58.704Z,7.65
2022-12-25T10:26:25.602Z,28.98
2022-12-25T10:29:19.503Z,8.57
2022-12-25T10:31:47.060Z,9.35
2022-12-25T10:34:14.525Z,9.38
2022-12-25T10:36:41.523Z,9.07
2022-12-25T10:39:07.934Z,9.43
2022-12-25T10:41:53.168Z,11.98
2022-12-25T10:44:21.296Z,8.85
2022-12-25T10:46:48.823Z,10.23
2022-12-25T10:49:16.433Z,10.60
2022-12-25T10:51:42.985Z,11.13
2022-12-25T10:54:18.395Z,10.85
2022-12-25T10:56:54.167Z,12.40
2022-12-25T10:59:20.560Z,13.10
2022-12-25T11:01:49.959Z,12.57
2022-12-25T11:04:28.408Z,12.55
2022-12-25T11:07:13.203Z,16.58
2022-12-25T11:09:39.734Z,17.13
2022-12-25T11:12:06.489Z,16.50
2022-12-25T11:14:32.806Z,16.27
2022-12-25T11:17:08.934Z,13.48
2022-12-25T11:19:35.280Z,13.43
2022-12-25T11:22:03.732Z,13.93
2022-12-25T11:24:31.289Z,12.75
2022-12-25T11:27:02.109Z,15.25
2022-12-25T11:29:43.488Z,13.73
2022-12-25T11:32:35.955Z,14.23
2022-12-25T11:35:02.533Z,17.05
2022-12-25T11:37:44.785Z,13.13
2022-12-25T11:40:33.850Z,11.98
2022-12-25T11:43:08.238Z,12.45
2022-12-25T11:46:10.422Z,12.70
2022-12-25T11:48:40.481Z,13.55
2022-12-25T11:51:06.930Z,13.00
2022-12-25T11:53:33.260Z,15.18
2022-12-25T11:56:06.187Z,21.88
2022-12-25T11:58:40.876Z,15.98
2022-12-25T12:01:29.144Z,16.75
2022-12-25T12:03:55.746Z,12.23
2022-12-25T12:06:32.936Z,9.68
2022-12-25T12:09:05.231Z,11.98
2022-12-25T12:11:34.644Z,13.02
2022-12-25T12:14:19.681Z,14.10
2022-12-25T12:16:46.156Z,15.60
2022-12-25T12:19:13.255Z,15.38
2022-12-25T12:21:40.528Z,14.40
2022-12-25T12:24:06.831Z,14.38
2022-12-25T12:26:36.858Z,14.77
2022-12-25T12:29:04.628Z,13.82
2022-12-25T12:31:42.423Z,12.85
2022-12-25T12:34:35.046Z,12.38
2022-12-25T12:37:13.033Z,12.65
2022-12-25T12:39:40.316Z,12.63
2022-12-25T12:42:13.940Z,13.45
2022-12-25T12:44:40.355Z,14.70
2022-12-25T12:47:06.758Z,14.98
2022-12-25T12:49:33.574Z,14.85
2022-12-25T12:52:07.487Z,16.23
2022-12-25T12:54:35.054Z,12.70
2022-12-25T12:57:02.793Z,16.05
2022-12-25T12:59:40.219Z,14.80
2022-12-25T13:02:38.955Z,15.13
2022-12-25T13:05:16.116Z,16.23
2022-12-25T13:08:01.288Z,17.73
2022-12-25T13:10:34.926Z,16.42
2022-12-25T13:13:14.015Z,24.35
2022-12-25T13:15:40.743Z,19.98
2022-12-25T13:18:09.559Z,19.63
2022-12-25T13:20:42.022Z,20.70
2022-12-25T13:23:23.564Z,24.02
2022-12-25T13:26:00.287Z,25.55
2022-12-25T13:28:27.993Z,22.73
2022-12-25T13:31:01.174Z,22.45
2022-12-25T13:33:27.728Z,23.17
2022-12-25T13:35:54.424Z,23.05
2022-12-25T13:38:22.126Z,22.83
2022-12-25T13:41:11.210Z,23.98
2022-12-25T13:43:42.377Z,23.30
2022-12-25T13:46:12.243Z,24.00
2022-12-25T13:48:38.622Z,24.27
2022-12-25T13:51:13.677Z,24.60
2022-12-25T13:53:40.029Z,22.45
2022-12-25T13:56:06.503Z,23.38
2022-12-25T13:58:33.967Z,25.63
2022-12-25T14:01:01.250Z,29.30
2022-12-25T14:03:30.524Z,26.02
2022-12-25T14:06:00.810Z,26.63
2022-12-25T14:08:28.753Z,24.48
2022-12-25T14:10:55.710Z,23.98
2022-12-25T14:13:23.599Z,23.65
2022-12-25T14:15:50.926Z,26.77
2022-12-25T14:18:18.186Z,28.75
2022-12-25T14:21:02.488Z,27.45
2022-12-25T14:23:39.292Z,27.33
2022-12-25T14:26:05.960Z,32.60
2022-12-25T14:28:34.127Z,27.55
2022-12-25T14:31:01.659Z,31.05
2022-12-25T14:33:29.911Z,26.67
2022-12-25T14:35:56.462Z,28.13
2022-12-25T14:38:24.485Z,26.40
2022-12-25T14:41:00.922Z,26.70
2022-12-25T14:43:28.291Z,28.33
2022-12-25T14:45:56.061Z,32.10
2022-12-25T14:48:25.485Z,31.48
2022-12-25T14:51:03.111Z,25.45
2022-12-25T14:53:33.781Z,29.98
2022-12-25T14:56:00.518Z,34.60
2022-12-25T14:58:31.044Z,37.60
2022-12-25T15:01:01.690Z,27.38
2022-12-25T15:03:29.879Z,31.33
2022-12-25T15:06:21.664Z,30.20
2022-12-25T15:08:55.385Z,26.77
2022-12-25T15:11:21.668Z,31.73
2022-12-25T15:13:47.980Z,29.63
2022-12-25T15:16:16.867Z,35.67
2022-12-25T15:18:44.173Z,37.22
2022-12-25T15:21:15.616Z,35.45
2022-12-25T15:23:42.050Z,32.13
2022-12-25T15:26:14.759Z,30.80
2022-12-25T15:31:24.903Z,36.38
2022-12-25T15:33:52.053Z,30.83
2022-12-25T15:36:18.699Z,36.00
2022-12-25T15:38:45.126Z,31.77
2022-12-25T15:41:36.427Z,28.33
2022-12-25T15:44:03.505Z,27.65
2022-12-25T15:46:31.187Z,32.42
2022-12-25T15:48:57.643Z,33.50
2022-12-25T15:51:24.004Z,32.28
2022-12-25T15:53:50.436Z,43.60
2022-12-25T15:56:16.935Z,31.50
2022-12-25T15:58:43.451Z,29.92
2022-12-25T16:01:13.383Z,30.08
2022-12-25T16:03:39.758Z,33.05
2022-12-25T16:06:06.086Z,33.33
2022-12-25T16:08:32.374Z,32.50
2022-12-25T16:10:58.709Z,28.70
2022-12-25T16:13:25.009Z,34.88
2022-12-25T16:15:51.529Z,32.85
2022-12-25T16:18:17.905Z,36.28
2022-12-25T16:20:44.288Z,33.25
2022-12-25T16:23:10.681Z,33.83
2022-12-25T16:25:37.044Z,31.58
2022-12-25T16:28:03.571Z,27.98
2022-12-25T16:30:29.909Z,32.50
2022-12-25T16:32:56.309Z,31.33
2022-12-25T16:35:22.663Z,30.80
2022-12-25T16:37:49.490Z,30.73
2022-12-25T16:40:15.817Z,34.50
2022-12-25T16:42:42.255Z,31.08
2022-12-25T16:45:08.819Z,31.45
2022-12-25T16:47:35.188Z,32.78
2022-12-25T16:50:03.443Z,34.25
2022-12-25T16:52:31.573Z,33.20
2022-12-25T16:54:59.087Z,32.53
2022-12-25T16:57:25.535Z,37.30
2022-12-25T16:59:51.960Z,37.15
2022-12-25T17:02:19.663Z,36.45
2022-12-25T17:04:46.562Z,41.40
2022-12-25T17:07:13.459Z,47.42
2022-12-25T17:09:44.017Z,52.83
2022-12-25T17:12:11.126Z,44.67
2022-12-25T17:14:37.487Z,45.80
2022-12-25T17:17:03.907Z,49.42
2022-12-25T17:19:30.474Z,40.20
2022-12-25T17:21:57.208Z,43.20
2022-12-25T17:24:23.547Z,49.05
2022-12-25T17:26:49.905Z,47.97
2022-12-25T17:29:21.626Z,40.03
2022-12-25T17:31:48.957Z,39.70
2022-12-25T17:34:15.408Z,42.63
2022-12-25T17:36:41.838Z,42.35
2022-12-25T17:39:08.210Z,46.30
2022-12-25T17:41:34.752Z,46.25
2022-12-25T17:44:01.225Z,49.75
2022-12-25T17:46:28.959Z,50.97
2022-12-25T17:48:56.204Z,45.92
2022-12-25T17:51:23.964Z,47.15
2022-12-25T17:53:54.572Z,48.72
2022-12-25T17:56:21.433Z,44.22
2022-12-25T17:58:55.424Z,47.15
2022-12-25T18:01:23.558Z,49.53
2022-12-25T18:03:50.665Z,58.97
2022-12-25T18:06:18.242Z,46.33
2022-12-25T18:08:45.563Z,49.97
2022-12-25T18:11:15.195Z,52.15
2022-12-25T18:13:44.560Z,56.45
2022-12-25T18:16:12.459Z,60.95
2022-12-25T18:18:38.949Z,63.03
2022-12-25T18:21:06.009Z,66.28
2022-12-25T18:23:32.877Z,57.33
2022-12-25T18:26:03.260Z,66.35
2022-12-25T18:28:29.668Z,59.70
2022-12-25T18:30:56.067Z,60.92
2022-12-25T18:33:22.536Z,60.63
2022-12-25T18:35:48.894Z,58.40
2022-12-25T18:38:15.203Z,58.67
2022-12-25T18:40:42.611Z,60.72
2022-12-25T18:43:09.360Z,63.67
2022-12-25T18:45:36.262Z,74.35
2022-12-25T18:48:06.249Z,62.00
2022-12-25T18:50:33.529Z,62.72
2022-12-25T18:53:00.166Z,59.58
2022-12-25T18:55:26.551Z,69.32
2022-12-25T18:57:52.932Z,65.57
2022-12-25T19:00:20.100Z,54.40
2022-12-25T19:02:46.890Z,48.67
2022-12-25T19:05:13.309Z,51.90
2022-12-25T19:07:39.932Z,51.00
2022-12-25T19:10:06.467Z,46.17
2022-12-25T19:12:33.055Z,48.97
2022-12-25T19:14:59.811Z,45.30
2022-12-25T19:17:31.528Z,48.75
2022-12-25T19:19:58.659Z,47.67
2022-12-25T19:22:25.037Z,46.75
2022-12-25T19:24:51.443Z,47.67
2022-12-25T19:27:17.818Z,51.42
2022-12-25T19:29:44.411Z,55.03
2022-12-25T19:32:10.843Z,51.30
2022-12-25T19:34:37.319Z,44.85
2022-12-25T19:37:04.163Z,54.35
2022-12-25T19:39:30.553Z,52.92
2022-12-25T19:41:56.872Z,54.65
2022-12-25T19:44:23.512Z,41.42
2022-12-25T19:46:50.073Z,48.38
2022-12-25T19:49:16.496Z,52.13
2022-12-25T19:51:43.939Z,48.65
2022-12-25T19:54:14.414Z,45.55
2022-12-25T19:56:41.401Z,45.28
2022-12-25T19:59:07.823Z,45.17
2022-12-25T20:01:34.329Z,44.58
2022-12-25T20:04:01.692Z,48.58
2022-12-25T20:06:30.216Z,50.45
2022-12-25T20:08:59.330Z,58.35
2022-12-25T20:11:28.567Z,47.70
2022-12-25T20:13:55.481Z,51.78
2022-12-25T20:16:22.426Z,38.40
2022-12-25T20:18:48.970Z,38.50
2022-12-25T20:21:16.511Z,40.30
2022-12-25T20:23:43.551Z,44.05
2022-12-25T20:26:10.653Z,42.38
2022-12-25T20:28:37.514Z,43.45
2022-12-25T20:31:13.529Z,35.88
2022-12-25T20:33:40.005Z,38.47
2022-12-25T20:36:07.269Z,35.15
2022-12-25T20:38:33.815Z,31.60
2022-12-25T20:41:28.376Z,34.25
2022-12-25T20:43:56.061Z,34.95
2022-12-25T20:46:22.903Z,34.05
2022-12-25T20:48:50.197Z,35.47
2022-12-25T20:51:17.829Z,33.83
2022-12-25T20:53:44.714Z,41.00
2022-12-25T20:56:12.814Z,49.35
2022-12-25T20:58:39.202Z,50.20
2022-12-25T21:01:06.662Z,45.17
2022-12-25T21:03:33.411Z,43.22
2022-12-25T21:06:00.054Z,47.42
2022-12-25T21:08:27.827Z,43.22
2022-12-25T21:10:56.395Z,42.40
2022-12-25T21:13:24.806Z,35.63
2022-12-25T21:15:53.045Z,36.65
2022-12-25T21:18:20.516Z,38.45
2022-12-25T21:20:48.119Z,38.15
2022-12-25T21:23:15.066Z,35.85
2022-12-25T21:25:41.813Z,37.85
2022-12-25T21:28:08.548Z,36.33
2022-12-25T21:30:35.604Z,37.10
2022-12-25T21:33:20.436Z,44.53
2022-12-25T21:35:46.868Z,39.45
2022-12-25T21:38:13.255Z,38.83
2022-12-25T21:40:41.005Z,41.72
2022-12-25T21:43:07.511Z,42.00
2022-12-25T21:45:37.163Z,40.10
2022-12-25T21:48:03.834Z,43.72
2022-12-25T21:50:48.888Z,41.03
2022-12-25T21:53:16.553Z,42.95
2022-12-25T21:55:42.875Z,47.30
2022-12-25T21:58:09.247Z,65.68
2022-12-25T22:00:35.890Z,42.28
2022-12-25T22:03:02.460Z,42.55
2022-12-25T22:05:47.432Z,46.72
2022-12-25T22:08:13.729Z,41.28
2022-12-25T22:10:40.090Z,43.15
2022-12-25T22:13:27.473Z,41.55
2022-12-25T22:16:20.921Z,41.80
2022-12-25T22:19:05.773Z,40.13
2022-12-25T22:21:32.073Z,39.35
2022-12-25T22:23:58.707Z,40.17
2022-12-25T22:26:25.022Z,37.28
2022-12-25T22:28:51.614Z,36.75
2022-12-25T22:31:17.962Z,40.05
2022-12-25T22:33:46.701Z,60.63
2022-12-25T22:36:13.038Z,43.85
2022-12-25T22:38:41.801Z,39.88
2022-12-25T22:41:09.405Z,33.97
2022-12-25T22:44:14.444Z,31.92
2022-12-25T22:46:27.197Z,31.60
2022-12-25T22:48:53.963Z,30.27
2022-12-25T22:51:20.767Z,29.67
2022-12-25T22:53:47.074Z,30.45
2022-12-25T22:56:16.690Z,30.05
2022-12-25T22:58:43.268Z,28.35
2022-12-25T23:01:10.665Z,28.13
2022-12-25T23:03:37.193Z,27.80
2022-12-25T23:06:03.686Z,28.30
2022-12-25T23:08:30.052Z,28.02
2022-12-25T23:11:00.951Z,24.30
2022-12-25T23:13:45.846Z,25.10
2022-12-25T23:16:15.752Z,21.98
2022-12-25T23:19:01.021Z,22.90
2022-12-25T23:21:47.496Z,23.42
2022-12-25T23:24:32.411Z,20.42
2022-12-25T23:26:58.795Z,18.98
2022-12-25T23:29:37.114Z,21.15
2022-12-25T23:32:07.664Z,21.67
2022-12-25T23:34:34.688Z,21.15
2022-12-25T23:37:01.139Z,20.80
2022-12-25T23:39:27.737Z,22.08
2022-12-25T23:41:54.099Z,21.75
2022-12-25T23:44:20.826Z,22.13
2022-12-25T23:46:52.400Z,23.08
2022-12-25T23:49:19.991Z,20.85
2022-12-25T23:51:47.083Z,22.83
2022-12-25T23:54:14.933Z,23.35
2022-12-25T23:56:41.666Z,22.63
2022-12-25T23:59:08.638Z,23.35
